sensor_id;sensor_type;location;lat;lon;timestamp;pressure;altitude;pressure_sealevel;temperature;humidity
64713;BME280;51140;45.340;5.980;2024-01-30T00:01:40;99840.00;;;3.56;99.13
64713;BME280;51140;45.340;5.980;2024-01-30T00:04:06;99844.63;;;3.68;98.68
64713;BME280;51140;45.340;5.980;2024-01-30T00:06:31;99846.44;;;3.68;99.53
64713;BME280;51140;45.340;5.980;2024-01-30T00:08:56;99846.13;;;3.48;98.49
64713;BME280;51140;45.340;5.980;2024-01-30T00:11:22;99843.63;;;3.32;98.28
64713;BME280;51140;45.340;5.980;2024-01-30T00:13:47;99852.91;;;3.20;98.92
64713;BME280;51140;45.340;5.980;2024-01-30T00:16:23;99850.63;;;3.17;99.45
64713;BME280;51140;45.340;5.980;2024-01-30T00:18:52;99857.16;;;3.21;100.00
64713;BME280;51140;45.340;5.980;2024-01-30T00:21:18;99860.88;;;3.04;98.96
64713;BME280;51140;45.340;5.980;2024-01-30T00:23:43;99859.25;;;3.03;100.00
64713;BME280;51140;45.340;5.980;2024-01-30T00:26:09;99859.53;;;2.85;100.00
64713;BME280;51140;45.340;5.980;2024-01-30T00:28:34;99847.97;;;2.94;100.00
64713;BME280;51140;45.340;5.980;2024-01-30T00:30:59;99854.38;;;3.00;100.00
64713;BME280;51140;45.340;5.980;2024-01-30T00:33:25;99852.88;;;2.97;100.00
64713;BME280;51140;45.340;5.980;2024-01-30T00:35:50;99864.59;;;2.86;100.00
64713;BME280;51140;45.340;5.980;2024-01-30T00:38:16;99853.31;;;3.09;100.00
64713;BME280;51140;45.340;5.980;2024-01-30T00:40:41;99852.38;;;3.24;100.00
64713;BME280;51140;45.340;5.980;2024-01-30T00:43:07;99855.56;;;3.34;100.00
64713;BME280;51140;45.340;5.980;2024-01-30T00:45:32;99849.47;;;3.42;100.00
64713;BME280;51140;45.340;5.980;2024-01-30T00:47:57;99848.25;;;3.30;99.64
64713;BME280;51140;45.340;5.980;2024-01-30T00:50:23;99842.94;;;3.38;99.04
64713;BME280;51140;45.340;5.980;2024-01-30T00:52:48;99841.47;;;3.35;99.16
64713;BME280;51140;45.340;5.980;2024-01-30T00:55:14;99837.56;;;3.09;98.92
64713;BME280;51140;45.340;5.980;2024-01-30T00:57:39;99851.78;;;2.92;98.71
64713;BME280;51140;45.340;5.980;2024-01-30T01:00:05;99838.63;;;3.00;100.00
64713;BME280;51140;45.340;5.980;2024-01-30T01:02:34;99840.84;;;3.11;100.00
64713;BME280;51140;45.340;5.980;2024-01-30T01:04:59;99839.63;;;3.21;100.00
64713;BME280;51140;45.340;5.980;2024-01-30T01:07:24;99836.88;;;3.15;99.72
64713;BME280;51140;45.340;5.980;2024-01-30T01:09:50;99840.09;;;3.25;99.94
64713;BME280;51140;45.340;5.980;2024-01-30T01:12:15;99838.50;;;3.16;99.14
64713;BME280;51140;45.340;5.980;2024-01-30T01:14:41;99843.63;;;3.09;100.00
64713;BME280;51140;45.340;5.980;2024-01-30T01:17:07;99842.75;;;3.17;100.00
64713;BME280;51140;45.340;5.980;2024-01-30T01:19:32;99847.28;;;3.08;100.00
64713;BME280;51140;45.340;5.980;2024-01-30T01:21:57;99842.38;;;3.05;100.00
64713;BME280;51140;45.340;5.980;2024-01-30T01:24:23;99844.31;;;3.26;99.73
64713;BME280;51140;45.340;5.980;2024-01-30T01:26:48;99844.56;;;2.94;98.24
64713;BME280;51140;45.340;5.980;2024-01-30T01:29:13;99864.34;;;2.73;98.96
64713;BME280;51140;45.340;5.980;2024-01-30T01:31:40;99853.94;;;2.57;98.84
64713;BME280;51140;45.340;5.980;2024-01-30T01:34:12;99855.47;;;2.74;100.00
64713;BME280;51140;45.340;5.980;2024-01-30T01:36:38;99862.28;;;2.61;99.90
64713;BME280;51140;45.340;5.980;2024-01-30T01:39:04;99859.41;;;2.78;100.00
64713;BME280;51140;45.340;5.980;2024-01-30T01:41:30;99860.72;;;2.82;100.00
64713;BME280;51140;45.340;5.980;2024-01-30T01:43:57;99855.63;;;2.81;100.00
64713;BME280;51140;45.340;5.980;2024-01-30T01:46:22;99848.66;;;2.96;100.00
64713;BME280;51140;45.340;5.980;2024-01-30T01:48:48;99842.38;;;3.05;100.00
64713;BME280;51140;45.340;5.980;2024-01-30T01:51:14;99839.56;;;3.07;100.00
64713;BME280;51140;45.340;5.980;2024-01-30T01:53:41;99838.63;;;3.22;100.00
64713;BME280;51140;45.340;5.980;2024-01-30T01:56:06;99844.63;;;3.31;100.00
64713;BME280;51140;45.340;5.980;2024-01-30T01:58:32;99848.59;;;3.04;99.68
64713;BME280;51140;45.340;5.980;2024-01-30T02:00:58;99842.72;;;3.02;100.00
64713;BME280;51140;45.340;5.980;2024-01-30T02:03:24;99836.59;;;3.10;100.00
64713;BME280;51140;45.340;5.980;2024-01-30T02:05:50;99831.13;;;3.19;100.00
64713;BME280;51140;45.340;5.980;2024-01-30T02:08:16;99828.72;;;3.10;99.37
64713;BME280;51140;45.340;5.980;2024-01-30T02:10:42;99833.47;;;3.06;99.36
64713;BME280;51140;45.340;5.980;2024-01-30T02:13:07;99831.16;;;3.11;98.71
64713;BME280;51140;45.340;5.980;2024-01-30T02:15:33;99830.78;;;2.92;99.37
64713;BME280;51140;45.340;5.980;2024-01-30T02:17:58;99834.44;;;2.91;99.32
64713;BME280;51140;45.340;5.980;2024-01-30T02:20:24;99838.34;;;2.64;99.33
64713;BME280;51140;45.340;5.980;2024-01-30T02:22:52;99839.81;;;2.89;99.92
64713;BME280;51140;45.340;5.980;2024-01-30T02:25:19;99849.06;;;2.77;99.57
64713;BME280;51140;45.340;5.980;2024-01-30T02:27:45;99841.88;;;2.79;99.14
64713;BME280;51140;45.340;5.980;2024-01-30T02:30:10;99838.84;;;2.90;99.15
64713;BME280;51140;45.340;5.980;2024-01-30T02:32:36;99846.63;;;2.75;100.00
64713;BME280;51140;45.340;5.980;2024-01-30T02:35:01;99846.97;;;2.72;99.36
64713;BME280;51140;45.340;5.980;2024-01-30T02:37:27;99843.72;;;2.70;100.00
64713;BME280;51140;45.340;5.980;2024-01-30T02:39:53;99846.28;;;2.78;99.37
64713;BME280;51140;45.340;5.980;2024-01-30T02:42:18;99845.69;;;2.68;100.00
64713;BME280;51140;45.340;5.980;2024-01-30T02:44:43;99847.31;;;2.69;100.00
64713;BME280;51140;45.340;5.980;2024-01-30T02:47:09;99848.97;;;2.70;100.00
64713;BME280;51140;45.340;5.980;2024-01-30T02:49:34;99846.84;;;2.66;100.00
64713;BME280;51140;45.340;5.980;2024-01-30T02:51:59;99861.13;;;2.63;100.00
64713;BME280;51140;45.340;5.980;2024-01-30T02:54:25;99849.06;;;2.46;100.00
64713;BME280;51140;45.340;5.980;2024-01-30T02:56:50;99844.44;;;2.56;100.00
64713;BME280;51140;45.340;5.980;2024-01-30T02:59:16;99843.59;;;2.64;100.00
64713;BME280;51140;45.340;5.980;2024-01-30T03:01:44;99839.31;;;2.63;100.00
64713;BME280;51140;45.340;5.980;2024-01-30T03:04:10;99829.22;;;2.82;100.00
64713;BME280;51140;45.340;5.980;2024-01-30T03:06:36;99833.75;;;2.88;100.00
64713;BME280;51140;45.340;5.980;2024-01-30T03:09:01;99842.22;;;2.76;100.00
64713;BME280;51140;45.340;5.980;2024-01-30T03:11:27;99842.06;;;2.69;100.00
64713;BME280;51140;45.340;5.980;2024-01-30T03:13:52;99834.59;;;2.58;100.00
64713;BME280;51140;45.340;5.980;2024-01-30T03:16:18;99832.38;;;2.47;100.00
64713;BME280;51140;45.340;5.980;2024-01-30T03:18:43;99837.47;;;2.41;100.00
64713;BME280;51140;45.340;5.980;2024-01-30T03:21:09;99833.28;;;2.54;100.00
64713;BME280;51140;45.340;5.980;2024-01-30T03:23:34;99836.63;;;2.40;100.00
64713;BME280;51140;45.340;5.980;2024-01-30T03:25:59;99830.72;;;2.46;100.00
64713;BME280;51140;45.340;5.980;2024-01-30T03:28:25;99830.53;;;2.56;100.00
64713;BME280;51140;45.340;5.980;2024-01-30T03:30:50;99830.09;;;2.44;100.00
64713;BME280;51140;45.340;5.980;2024-01-30T03:33:15;99838.72;;;2.53;100.00
64713;BME280;51140;45.340;5.980;2024-01-30T03:35:41;99832.97;;;2.57;99.97
64713;BME280;51140;45.340;5.980;2024-01-30T03:38:06;99829.53;;;2.57;100.00
64713;BME280;51140;45.340;5.980;2024-01-30T03:40:31;99830.03;;;2.52;99.60
64713;BME280;51140;45.340;5.980;2024-01-30T03:42:57;99822.22;;;2.44;100.00
64713;BME280;51140;45.340;5.980;2024-01-30T03:45:23;99828.47;;;2.35;100.00
64713;BME280;51140;45.340;5.980;2024-01-30T03:47:48;99838.13;;;2.35;100.00
64713;BME280;51140;45.340;5.980;2024-01-30T03:50:13;99841.75;;;2.34;100.00
64713;BME280;51140;45.340;5.980;2024-01-30T03:52:39;99845.69;;;2.29;100.00
64713;BME280;51140;45.340;5.980;2024-01-30T03:55:04;99850.78;;;2.23;100.00
64713;BME280;51140;45.340;5.980;2024-01-30T03:57:30;99850.88;;;1.99;100.00
64713;BME280;51140;45.340;5.980;2024-01-30T03:59:55;99850.69;;;2.00;100.00
64713;BME280;51140;45.340;5.980;2024-01-30T04:02:21;99851.78;;;2.22;100.00
64713;BME280;51140;45.340;5.980;2024-01-30T04:04:46;99856.00;;;2.39;100.00
64713;BME280;51140;45.340;5.980;2024-01-30T04:07:11;99851.97;;;2.59;100.00
64713;BME280;51140;45.340;5.980;2024-01-30T04:09:38;99855.28;;;2.53;100.00
64713;BME280;51140;45.340;5.980;2024-01-30T04:12:04;99857.34;;;2.27;99.96
64713;BME280;51140;45.340;5.980;2024-01-30T04:14:29;99858.28;;;2.34;100.00
64713;BME280;51140;45.340;5.980;2024-01-30T04:16:54;99862.88;;;2.32;100.00
64713;BME280;51140;45.340;5.980;2024-01-30T04:19:20;99851.78;;;2.22;100.00
64713;BME280;51140;45.340;5.980;2024-01-30T04:21:45;99857.31;;;2.35;100.00
64713;BME280;51140;45.340;5.980;2024-01-30T04:24:10;99860.16;;;2.17;100.00
64713;BME280;51140;45.340;5.980;2024-01-30T04:26:36;99861.41;;;1.83;99.93
64713;BME280;51140;45.340;5.980;2024-01-30T04:29:02;99857.47;;;1.79;100.00
64713;BME280;51140;45.340;5.980;2024-01-30T04:31:27;99859.44;;;1.60;100.00
64713;BME280;51140;45.340;5.980;2024-01-30T04:33:53;99862.19;;;1.75;100.00
64713;BME280;51140;45.340;5.980;2024-01-30T04:36:18;99865.81;;;1.58;100.00
64713;BME280;51140;45.340;5.980;2024-01-30T04:38:44;99859.44;;;1.60;100.00
64713;BME280;51140;45.340;5.980;2024-01-30T04:41:09;99857.47;;;1.70;100.00
64713;BME280;51140;45.340;5.980;2024-01-30T04:43:34;99861.91;;;1.62;100.00
64713;BME280;51140;45.340;5.980;2024-01-30T04:46:01;99860.72;;;1.81;100.00
64713;BME280;51140;45.340;5.980;2024-01-30T04:48:26;99853.53;;;1.74;100.00
64713;BME280;51140;45.340;5.980;2024-01-30T04:50:52;99857.78;;;1.84;100.00
64713;BME280;51140;45.340;5.980;2024-01-30T04:53:17;99859.09;;;1.71;100.00
64713;BME280;51140;45.340;5.980;2024-01-30T04:55:42;99869.91;;;1.68;100.00
64713;BME280;51140;45.340;5.980;2024-01-30T04:58:08;99861.91;;;1.62;100.00
64713;BME280;51140;45.340;5.980;2024-01-30T05:00:33;99863.53;;;1.79;100.00
64713;BME280;51140;45.340;5.980;2024-01-30T05:02:58;99866.63;;;1.91;100.00
64713;BME280;51140;45.340;5.980;2024-01-30T05:05:24;99863.00;;;1.84;100.00
64713;BME280;51140;45.340;5.980;2024-01-30T05:07:49;99868.72;;;1.95;100.00
64713;BME280;51140;45.340;5.980;2024-01-30T05:10:15;99871.84;;;1.91;100.00
64713;BME280;51140;45.340;5.980;2024-01-30T05:12:40;99866.44;;;1.84;100.00
64713;BME280;51140;45.340;5.980;2024-01-30T05:15:06;99869.91;;;1.77;100.00
64713;BME280;51140;45.340;5.980;2024-01-30T05:17:31;99869.25;;;1.66;100.00
64713;BME280;51140;45.340;5.980;2024-01-30T05:19:57;99872.84;;;1.73;100.00
64713;BME280;51140;45.340;5.980;2024-01-30T05:22:22;99872.66;;;1.91;100.00
64713;BME280;51140;45.340;5.980;2024-01-30T05:24:47;99880.97;;;2.03;100.00
64713;BME280;51140;45.340;5.980;2024-01-30T05:27:13;99879.06;;;1.72;100.00
64713;BME280;51140;45.340;5.980;2024-01-30T05:29:41;99882.31;;;1.91;100.00
64713;BME280;51140;45.340;5.980;2024-01-30T05:32:06;99882.50;;;1.81;100.00
64713;BME280;51140;45.340;5.980;2024-01-30T05:34:32;99879.38;;;1.86;100.00
64713;BME280;51140;45.340;5.980;2024-01-30T05:36:57;99884.41;;;2.03;100.00
64713;BME280;51140;45.340;5.980;2024-01-30T05:39:23;99883.75;;;2.09;100.00
64713;BME280;51140;45.340;5.980;2024-01-30T05:41:48;99884.09;;;1.98;100.00
64713;BME280;51140;45.340;5.980;2024-01-30T05:44:14;99881.97;;;2.02;100.00
64713;BME280;51140;45.340;5.980;2024-01-30T05:46:39;99883.94;;;1.92;100.00
64713;BME280;51140;45.340;5.980;2024-01-30T05:49:04;99894.91;;;1.95;100.00
64713;BME280;51140;45.340;5.980;2024-01-30T05:51:30;99900.16;;;1.95;100.00
64713;BME280;51140;45.340;5.980;2024-01-30T05:53:55;99898.06;;;1.83;100.00
64713;BME280;51140;45.340;5.980;2024-01-30T05:56:20;99903.94;;;1.85;100.00
64713;BME280;51140;45.340;5.980;2024-01-30T05:58:46;99902.09;;;2.01;100.00
64713;BME280;51140;45.340;5.980;2024-01-30T06:01:11;99905.38;;;1.95;100.00
64713;BME280;51140;45.340;5.980;2024-01-30T06:03:36;99904.91;;;1.84;100.00
64713;BME280;51140;45.340;5.980;2024-01-30T06:06:02;99899.84;;;1.82;100.00
64713;BME280;51140;45.340;5.980;2024-01-30T06:08:28;99903.59;;;1.71;100.00
64713;BME280;51140;45.340;5.980;2024-01-30T06:10:53;99910.81;;;1.69;100.00
64713;BME280;51140;45.340;5.980;2024-01-30T06:13:20;99909.50;;;1.65;100.00
64713;BME280;51140;45.340;5.980;2024-01-30T06:15:45;99910.16;;;1.59;100.00
64713;BME280;51140;45.340;5.980;2024-01-30T06:18:10;99915.41;;;1.59;100.00
64713;BME280;51140;45.340;5.980;2024-01-30T06:20:36;99914.41;;;1.52;100.00
64713;BME280;51140;45.340;5.980;2024-01-30T06:23:01;99918.97;;;1.58;100.00
64713;BME280;51140;45.340;5.980;2024-01-30T06:25:27;99917.69;;;1.70;100.00
64713;BME280;51140;45.340;5.980;2024-01-30T06:27:52;99913.75;;;1.83;100.00
64713;BME280;51140;45.340;5.980;2024-01-30T06:30:18;99916.72;;;1.80;100.00
64713;BME280;51140;45.340;5.980;2024-01-30T06:32:43;99920.78;;;1.82;100.00
64713;BME280;51140;45.340;5.980;2024-01-30T06:35:09;99922.91;;;1.87;100.00
64713;BME280;51140;45.340;5.980;2024-01-30T06:37:35;99927.66;;;1.99;100.00
64713;BME280;51140;45.340;5.980;2024-01-30T06:40:01;99928.13;;;2.03;100.00
64713;BME280;51140;45.340;5.980;2024-01-30T06:42:26;99931.41;;;2.05;100.00
64713;BME280;51140;45.340;5.980;2024-01-30T06:44:51;99934.97;;;2.12;100.00
64713;BME280;51140;45.340;5.980;2024-01-30T06:47:17;99939.91;;;2.07;100.00
64713;BME280;51140;45.340;5.980;2024-01-30T06:49:42;99935.97;;;2.11;100.00
64713;BME280;51140;45.340;5.980;2024-01-30T06:52:09;99944.63;;;2.11;100.00
64713;BME280;51140;45.340;5.980;2024-01-30T06:54:34;99943.53;;;1.90;100.00
64713;BME280;51140;45.340;5.980;2024-01-30T06:56:59;99945.97;;;1.75;100.00
64713;BME280;51140;45.340;5.980;2024-01-30T06:59:25;99954.00;;;1.73;100.00
64713;BME280;51140;45.340;5.980;2024-01-30T07:01:51;99947.78;;;1.99;100.00
64713;BME280;51140;45.340;5.980;2024-01-30T07:04:16;99952.88;;;1.76;100.00
64713;BME280;51140;45.340;5.980;2024-01-30T07:06:43;99959.25;;;1.65;100.00
64713;BME280;51140;45.340;5.980;2024-01-30T07:09:08;99959.22;;;1.57;100.00
64713;BME280;51140;45.340;5.980;2024-01-30T07:11:34;99955.31;;;1.61;100.00
64713;BME280;51140;45.340;5.980;2024-01-30T07:13:59;99952.88;;;1.76;100.00
64713;BME280;51140;45.340;5.980;2024-01-30T07:16:24;99949.75;;;1.97;100.00
64713;BME280;51140;45.340;5.980;2024-01-30T07:18:50;99955.63;;;1.99;100.00
64713;BME280;51140;45.340;5.980;2024-01-30T07:21:15;99953.03;;;1.83;100.00
64713;BME280;51140;45.340;5.980;2024-01-30T07:23:41;99963.16;;;1.78;100.00
64713;BME280;51140;45.340;5.980;2024-01-30T07:26:07;99960.84;;;1.58;100.00
64713;BME280;51140;45.340;5.980;2024-01-30T07:28:34;99963.00;;;1.71;100.00
64713;BME280;51140;45.340;5.980;2024-01-30T07:31:00;99960.53;;;1.61;100.00
64713;BME280;51140;45.340;5.980;2024-01-30T07:33:25;99969.03;;;1.63;100.00
64713;BME280;51140;45.340;5.980;2024-01-30T07:35:52;99968.22;;;1.63;100.00
64713;BME280;51140;45.340;5.980;2024-01-30T07:38:18;99967.75;;;1.84;100.00
64713;BME280;51140;45.340;5.980;2024-01-30T07:40:43;99966.91;;;1.75;100.00
64713;BME280;51140;45.340;5.980;2024-01-30T07:43:09;99974.59;;;1.60;100.00
64713;BME280;51140;45.340;5.980;2024-01-30T07:45:35;99978.88;;;1.61;100.00
64713;BME280;51140;45.340;5.980;2024-01-30T07:48:00;99981.81;;;1.66;100.00
64713;BME280;51140;45.340;5.980;2024-01-30T07:50:26;99984.13;;;1.94;100.00
64713;BME280;51140;45.340;5.980;2024-01-30T07:52:52;99994.25;;;2.05;100.00
64713;BME280;51140;45.340;5.980;2024-01-30T07:55:20;99989.31;;;2.26;100.00
64713;BME280;51140;45.340;5.980;2024-01-30T07:57:51;99993.28;;;2.14;100.00
64713;BME280;51140;45.340;5.980;2024-01-30T08:00:17;100002.09;;;2.29;100.00
64713;BME280;51140;45.340;5.980;2024-01-30T08:02:43;99991.91;;;2.34;100.00
64713;BME280;51140;45.340;5.980;2024-01-30T08:05:08;99994.06;;;2.39;100.00
64713;BME280;51140;45.340;5.980;2024-01-30T08:07:36;99997.31;;;2.41;100.00
64713;BME280;51140;45.340;5.980;2024-01-30T08:10:02;99994.88;;;2.39;100.00
64713;BME280;51140;45.340;5.980;2024-01-30T08:12:27;99990.25;;;2.49;100.00
64713;BME280;51140;45.340;5.980;2024-01-30T08:14:53;99994.81;;;2.63;100.00
64713;BME280;51140;45.340;5.980;2024-01-30T08:17:18;99995.50;;;2.49;100.00
64713;BME280;51140;45.340;5.980;2024-01-30T08:19:43;99993.88;;;2.40;100.00
64713;BME280;51140;45.340;5.980;2024-01-30T08:22:08;99994.38;;;2.44;100.00
64713;BME280;51140;45.340;5.980;2024-01-30T08:24:34;99988.66;;;2.48;100.00
64713;BME280;51140;45.340;5.980;2024-01-30T08:26:59;99992.84;;;2.73;100.00
64713;BME280;51140;45.340;5.980;2024-01-30T08:29:27;99994.34;;;2.68;100.00
64713;BME280;51140;45.340;5.980;2024-01-30T08:31:53;99990.56;;;2.62;100.00
64713;BME280;51140;45.340;5.980;2024-01-30T08:34:20;99991.84;;;2.74;100.00
64713;BME280;51140;45.340;5.980;2024-01-30T08:36:46;99998.00;;;2.89;100.00
64713;BME280;51140;45.340;5.980;2024-01-30T08:39:11;99995.72;;;2.86;100.00
64713;BME280;51140;45.340;5.980;2024-01-30T08:41:36;99994.75;;;2.87;100.00
64713;BME280;51140;45.340;5.980;2024-01-30T08:44:02;99997.94;;;2.67;100.00
64713;BME280;51140;45.340;5.980;2024-01-30T08:46:28;100002.06;;;2.53;100.00
64713;BME280;51140;45.340;5.980;2024-01-30T08:48:53;100001.66;;;2.80;100.00
64713;BME280;51140;45.340;5.980;2024-01-30T08:51:19;100001.44;;;2.98;100.00
64713;BME280;51140;45.340;5.980;2024-01-30T08:53:44;100001.19;;;3.16;100.00
64713;BME280;51140;45.340;5.980;2024-01-30T08:56:09;99999.50;;;3.31;100.00
64713;BME280;51140;45.340;5.980;2024-01-30T08:58:35;99999.84;;;3.20;99.66
64713;BME280;51140;45.340;5.980;2024-01-30T09:01:00;100002.00;;;3.16;100.00
64713;BME280;51140;45.340;5.980;2024-01-30T09:03:25;100001.78;;;3.26;98.83
64713;BME280;51140;45.340;5.980;2024-01-30T09:05:51;100000.72;;;3.12;99.40
64713;BME280;51140;45.340;5.980;2024-01-30T09:08:16;99994.53;;;3.05;100.00
64713;BME280;51140;45.340;5.980;2024-01-30T09:10:41;99994.81;;;3.10;100.00
64713;BME280;51140;45.340;5.980;2024-01-30T09:13:07;99995.47;;;3.43;99.56
64713;BME280;51140;45.340;5.980;2024-01-30T09:15:32;99984.75;;;3.53;100.00
64713;BME280;51140;45.340;5.980;2024-01-30T09:17:58;99999.34;;;3.24;100.00
64713;BME280;51140;45.340;5.980;2024-01-30T09:20:23;99997.50;;;3.33;99.31
64713;BME280;51140;45.340;5.980;2024-01-30T09:22:49;99996.47;;;3.42;99.78
64713;BME280;51140;45.340;5.980;2024-01-30T09:25:14;100000.72;;;3.43;99.67
64713;BME280;51140;45.340;5.980;2024-01-30T09:27:40;99985.28;;;3.48;99.10
64713;BME280;51140;45.340;5.980;2024-01-30T09:30:06;99989.59;;;3.64;98.34
64713;BME280;51140;45.340;5.980;2024-01-30T09:32:31;99984.63;;;3.69;99.59
64713;BME280;51140;45.340;5.980;2024-01-30T09:34:57;99983.16;;;3.89;99.11
64713;BME280;51140;45.340;5.980;2024-01-30T09:37:22;99993.25;;;3.55;98.80
64713;BME280;51140;45.340;5.980;2024-01-30T09:39:47;99988.13;;;3.84;98.13
64713;BME280;51140;45.340;5.980;2024-01-30T09:42:33;99993.03;;;3.87;97.42
64713;BME280;51140;45.340;5.980;2024-01-30T09:45:01;99991.03;;;3.89;97.81
64713;BME280;51140;45.340;5.980;2024-01-30T09:47:26;99989.47;;;3.80;98.26
64713;BME280;51140;45.340;5.980;2024-01-30T09:49:52;99983.84;;;3.83;97.81
64713;BME280;51140;45.340;5.980;2024-01-30T09:52:17;99993.31;;;3.69;97.49
64713;BME280;51140;45.340;5.980;2024-01-30T09:54:44;99993.31;;;3.69;98.56
64713;BME280;51140;45.340;5.980;2024-01-30T09:57:11;99999.56;;;3.68;98.70
64713;BME280;51140;45.340;5.980;2024-01-30T09:59:36;99990.00;;;3.75;98.56
64713;BME280;51140;45.340;5.980;2024-01-30T10:02:02;99996.78;;;3.70;99.93
64713;BME280;51140;45.340;5.980;2024-01-30T10:04:29;99993.44;;;3.76;98.76
64713;BME280;51140;45.340;5.980;2024-01-30T10:06:55;100002.44;;;3.81;98.67
64713;BME280;51140;45.340;5.980;2024-01-30T10:09:20;99994.38;;;3.83;98.32
64713;BME280;51140;45.340;5.980;2024-01-30T10:11:47;99998.09;;;3.88;98.64
64713;BME280;51140;45.340;5.980;2024-01-30T10:14:12;99989.84;;;3.99;99.24
64713;BME280;51140;45.340;5.980;2024-01-30T10:16:37;99990.63;;;4.00;100.00
64713;BME280;51140;45.340;5.980;2024-01-30T10:19:03;99989.28;;;4.04;100.00
64713;BME280;51140;45.340;5.980;2024-01-30T10:21:29;99990.03;;;4.13;99.60
64713;BME280;51140;45.340;5.980;2024-01-30T10:23:55;99985.47;;;4.44;98.89
64713;BME280;51140;45.340;5.980;2024-01-30T10:26:20;99984.22;;;4.84;97.11
64713;BME280;51140;45.340;5.980;2024-01-30T10:28:46;99983.56;;;4.96;98.17
64713;BME280;51140;45.340;5.980;2024-01-30T10:31:16;99976.09;;;5.14;97.60
64713;BME280;51140;45.340;5.980;2024-01-30T10:33:42;99980.88;;;5.26;98.74
64713;BME280;51140;45.340;5.980;2024-01-30T10:36:09;99979.44;;;5.59;95.55
64713;BME280;51140;45.340;5.980;2024-01-30T10:38:36;99974.56;;;5.98;94.30
64713;BME280;51140;45.340;5.980;2024-01-30T10:41:03;99970.53;;;6.02;93.18
64713;BME280;51140;45.340;5.980;2024-01-30T10:43:35;99965.56;;;6.14;91.60
64713;BME280;51140;45.340;5.980;2024-01-30T10:46:14;99966.59;;;6.13;93.73
64713;BME280;51140;45.340;5.980;2024-01-30T10:48:44;99953.44;;;6.19;94.46
64713;BME280;51140;45.340;5.980;2024-01-30T10:51:13;99961.88;;;6.36;92.97
64713;BME280;51140;45.340;5.980;2024-01-30T10:53:39;99965.59;;;6.48;94.80
64713;BME280;51140;45.340;5.980;2024-01-30T10:56:05;99961.63;;;6.59;93.73
64713;BME280;51140;45.340;5.980;2024-01-30T10:58:31;99966.84;;;6.86;93.52
64713;BME280;51140;45.340;5.980;2024-01-30T11:00:58;99966.25;;;6.91;87.77
64713;BME280;51140;45.340;5.980;2024-01-30T11:03:24;99967.56;;;7.15;89.48
64713;BME280;51140;45.340;5.980;2024-01-30T11:05:50;99965.53;;;7.17;87.27
64713;BME280;51140;45.340;5.980;2024-01-30T11:08:25;99966.59;;;7.22;90.84
64713;BME280;51140;45.340;5.980;2024-01-30T11:10:55;99959.13;;;7.39;88.03
64713;BME280;51140;45.340;5.980;2024-01-30T11:13:22;99964.03;;;7.48;88.48
64713;BME280;51140;45.340;5.980;2024-01-30T11:15:48;99964.47;;;7.59;88.22
64713;BME280;51140;45.340;5.980;2024-01-30T11:18:23;99963.63;;;7.52;85.99
64713;BME280;51140;45.340;5.980;2024-01-30T11:20:48;99961.59;;;7.54;86.47
64713;BME280;51140;45.340;5.980;2024-01-30T11:23:14;99960.59;;;7.61;88.19
64713;BME280;51140;45.340;5.980;2024-01-30T11:25:39;99954.53;;;7.67;84.01
64713;BME280;51140;45.340;5.980;2024-01-30T11:28:04;99948.00;;;7.70;82.33
64713;BME280;51140;45.340;5.980;2024-01-30T11:30:31;99939.66;;;7.66;82.35
64713;BME280;51140;45.340;5.980;2024-01-30T11:33:08;99932.16;;;7.70;80.32
64713;BME280;51140;45.340;5.980;2024-01-30T11:35:39;99923.81;;;7.66;84.38
64713;BME280;51140;45.340;5.980;2024-01-30T11:38:06;99930.13;;;7.72;84.03
64713;BME280;51140;45.340;5.980;2024-01-30T11:40:33;99927.69;;;7.90;85.34
64713;BME280;51140;45.340;5.980;2024-01-30T11:43:00;99922.19;;;7.91;86.37
64713;BME280;51140;45.340;5.980;2024-01-30T11:45:27;99916.91;;;8.04;85.98
64713;BME280;51140;45.340;5.980;2024-01-30T11:47:53;99911.41;;;8.06;82.57
64713;BME280;51140;45.340;5.980;2024-01-30T11:50:18;99911.19;;;8.14;82.98
64713;BME280;51140;45.340;5.980;2024-01-30T11:52:44;99907.13;;;8.18;84.48
64713;BME280;51140;45.340;5.980;2024-01-30T11:55:10;99910.78;;;8.24;84.96
64713;BME280;51140;45.340;5.980;2024-01-30T11:57:35;99907.13;;;8.31;81.86
64713;BME280;51140;45.340;5.980;2024-01-30T12:00:03;99907.94;;;8.38;83.53
64713;BME280;51140;45.340;5.980;2024-01-30T12:02:33;99905.06;;;8.46;85.82
64713;BME280;51140;45.340;5.980;2024-01-30T12:05:04;99902.63;;;8.51;83.89
64713;BME280;51140;45.340;5.980;2024-01-30T12:07:29;99896.44;;;8.71;83.96
64713;BME280;51140;45.340;5.980;2024-01-30T12:09:55;99894.44;;;8.59;80.73
64713;BME280;51140;45.340;5.980;2024-01-30T12:12:25;99890.19;;;8.58;82.75
64713;BME280;51140;45.340;5.980;2024-01-30T12:14:51;99877.72;;;8.66;80.93
64713;BME280;51140;45.340;5.980;2024-01-30T12:17:31;99877.72;;;8.66;81.58
64713;BME280;51140;45.340;5.980;2024-01-30T12:20:10;99879.63;;;8.52;81.56
64713;BME280;51140;45.340;5.980;2024-01-30T12:22:43;99876.13;;;8.58;79.91
64713;BME280;51140;45.340;5.980;2024-01-30T12:25:10;99872.50;;;8.52;77.48
64713;BME280;51140;45.340;5.980;2024-01-30T12:27:36;99868.72;;;8.80;77.71
64713;BME280;51140;45.340;5.980;2024-01-30T12:30:06;99862.25;;;8.69;77.53
64713;BME280;51140;45.340;5.980;2024-01-30T12:32:31;99859.75;;;8.81;77.55
64713;BME280;51140;45.340;5.980;2024-01-30T12:34:56;99863.00;;;8.83;80.60
64713;BME280;51140;45.340;5.980;2024-01-30T12:37:22;99863.97;;;8.95;79.32
64713;BME280;51140;45.340;5.980;2024-01-30T12:39:50;99852.41;;;8.83;77.69
64713;BME280;51140;45.340;5.980;2024-01-30T12:42:16;99849.16;;;8.81;80.13
64713;BME280;51140;45.340;5.980;2024-01-30T12:44:41;99851.94;;;8.99;81.94
64713;BME280;51140;45.340;5.980;2024-01-30T12:47:09;99850.97;;;9.25;80.19
64713;BME280;51140;45.340;5.980;2024-01-30T12:49:35;99848.94;;;9.20;80.24
64713;BME280;51140;45.340;5.980;2024-01-30T12:52:00;99837.44;;;9.33;75.65
64713;BME280;51140;45.340;5.980;2024-01-30T12:54:26;99834.69;;;9.21;76.68
64713;BME280;51140;45.340;5.980;2024-01-30T12:56:51;99831.41;;;9.19;78.30
64713;BME280;51140;45.340;5.980;2024-01-30T12:59:17;99833.03;;;9.51;80.32